createdAt,value
2023-01-20T00:02:19.551Z,15.95
2023-01-20T00:07:20.851Z,17.33
2023-01-20T00:12:22.307Z,18.38
2023-01-20T00:17:23.638Z,16.00
2023-01-20T00:22:24.998Z,25.20
2023-01-20T00:27:26.337Z,17.20
2023-01-20T00:32:27.717Z,20.30
2023-01-20T00:37:29.182Z,20.77
2023-01-20T00:42:30.584Z,20.88
2023-01-20T00:47:32.055Z,20.42
2023-01-20T00:52:33.500Z,19.42
2023-01-20T00:57:34.860Z,19.33
2023-01-20T01:02:40.025Z,18.92
2023-01-20T01:07:42.256Z,21.67
2023-01-20T01:12:43.945Z,21.48
2023-01-20T01:17:45.545Z,20.35
2023-01-20T01:22:46.990Z,22.48
2023-01-20T01:27:48.403Z,21.88
2023-01-20T01:32:49.902Z,20.48
2023-01-20T01:37:51.314Z,20.83
2023-01-20T01:42:52.593Z,18.02
2023-01-20T01:48:03.167Z,21.00
2023-01-20T01:53:05.762Z,19.38
2023-01-20T01:58:11.281Z,21.27
2023-01-20T02:03:13.290Z,23.42
2023-01-20T02:08:14.814Z,22.60
2023-01-20T02:13:16.594Z,22.45
2023-01-20T02:18:38.970Z,21.25
2023-01-20T02:24:12.303Z,22.45
2023-01-20T02:30:05.719Z,25.25
2023-01-20T02:35:40.299Z,25.67
2023-01-20T02:41:03.466Z,23.38
2023-01-20T02:46:16.438Z,25.90
2023-01-20T02:51:24.566Z,23.02
2023-01-20T02:56:29.634Z,24.33
2023-01-20T03:01:36.981Z,25.67
2023-01-20T03:06:46.512Z,24.13
2023-01-20T03:12:17.695Z,26.15
2023-01-20T03:17:20.424Z,25.90
2023-01-20T03:22:22.683Z,31.70
2023-01-20T03:27:24.592Z,27.67
2023-01-20T03:32:27.083Z,28.83
2023-01-20T03:37:28.535Z,26.77
2023-01-20T03:42:52.609Z,29.63
2023-01-20T03:48:12.739Z,30.15
2023-01-20T03:53:45.870Z,28.80
2023-01-20T03:58:51.881Z,27.30
2023-01-20T04:03:54.559Z,26.52
2023-01-20T04:09:04.321Z,25.85
2023-01-20T04:14:09.457Z,26.58
2023-01-20T04:19:10.818Z,26.02
2023-01-20T04:24:15.157Z,28.98
2023-01-20T04:29:16.633Z,25.57
2023-01-20T04:34:18.080Z,26.20
2023-01-20T04:39:19.413Z,28.42
2023-01-20T04:44:20.799Z,29.42
2023-01-20T04:49:22.258Z,31.05
2023-01-20T04:54:23.610Z,31.63
2023-01-20T04:59:24.951Z,31.75
2023-01-20T05:04:26.347Z,31.13
2023-01-20T05:09:27.736Z,31.85
2023-01-20T05:14:29.527Z,29.77
2023-01-20T05:19:30.851Z,30.92
2023-01-20T05:24:32.199Z,32.20
2023-01-20T05:29:33.563Z,33.63
2023-01-20T05:34:34.893Z,31.02
2023-01-20T05:39:36.179Z,36.50
2023-01-20T05:44:37.577Z,36.17
2023-01-20T05:49:38.951Z,32.58
2023-01-20T05:54:40.403Z,33.83
2023-01-20T05:59:42.391Z,34.58
2023-01-20T06:04:43.788Z,37.58
2023-01-20T06:09:45.203Z,35.53
2023-01-20T06:14:46.984Z,39.50
2023-01-20T06:19:49.228Z,36.67
2023-01-20T06:24:50.746Z,38.55
2023-01-20T06:29:52.169Z,38.42
2023-01-20T06:34:53.664Z,36.83
2023-01-20T06:39:54.947Z,45.20
2023-01-20T06:44:56.298Z,35.95
2023-01-20T06:49:57.692Z,34.85
2023-01-20T06:54:59.094Z,33.00
2023-01-20T07:00:00.516Z,32.65
2023-01-20T07:05:02.477Z,34.67
2023-01-20T07:10:04.228Z,40.38
2023-01-20T07:15:06.070Z,42.35
2023-01-20T07:20:07.956Z,38.53
2023-01-20T07:25:09.858Z,38.15
2023-01-20T07:30:11.364Z,40.92
2023-01-20T07:35:13.216Z,37.22
2023-01-20T07:40:14.802Z,40.67
2023-01-20T07:45:17.034Z,31.23
2023-01-20T07:50:18.699Z,37.03
2023-01-20T07:55:20.178Z,42.40
2023-01-20T08:00:22.209Z,37.55
2023-01-20T08:05:23.617Z,40.50
2023-01-20T08:10:25.119Z,41.83
2023-01-20T08:15:26.547Z,44.28
2023-01-20T08:20:28.014Z,40.13
2023-01-20T08:25:29.398Z,40.35
2023-01-20T08:30:30.900Z,39.00
2023-01-20T08:35:35.392Z,37.88
2023-01-20T08:40:36.814Z,39.33
2023-01-20T08:45:38.433Z,42.17
2023-01-20T08:50:39.940Z,43.95
2023-01-20T08:55:41.300Z,43.33
2023-01-20T09:00:42.613Z,37.38
2023-01-20T09:05:44.170Z,42.88
2023-01-20T09:10:46.302Z,41.47
2023-01-20T09:15:52.319Z,39.40
2023-01-20T09:20:53.597Z,41.35
2023-01-20T09:25:55.322Z,46.03
2023-01-20T09:31:05.327Z,43.47
2023-01-20T09:36:09.513Z,43.17
2023-01-20T09:41:44.015Z,48.50
2023-01-20T09:47:20.199Z,45.72
2023-01-20T09:52:46.929Z,43.90
2023-01-20T09:57:59.215Z,45.75
2023-01-20T10:03:09.844Z,38.10
2023-01-20T10:08:21.589Z,33.88
2023-01-20T10:13:47.266Z,30.67
2023-01-20T10:19:04.888Z,33.90
2023-01-20T10:24:18.227Z,30.42
2023-01-20T10:29:41.207Z,29.75
2023-01-20T10:34:46.953Z,30.45
2023-01-20T10:39:54.562Z,30.83
2023-01-20T10:44:56.157Z,28.83
2023-01-20T10:50:22.207Z,27.55
2023-01-20T10:55:34.953Z,26.38
2023-01-20T11:00:37.161Z,21.48
2023-01-20T11:05:38.715Z,18.75
2023-01-20T11:10:41.729Z,17.58
2023-01-20T11:15:48.265Z,17.40
2023-01-20T11:20:53.927Z,17.40
2023-01-20T11:25:57.987Z,16.85
2023-01-20T11:30:59.507Z,15.68
2023-01-20T11:36:04.579Z,16.50
2023-01-20T11:41:17.252Z,16.67
2023-01-20T11:46:25.626Z,18.00
2023-01-20T11:51:27.168Z,15.82
2023-01-20T11:56:41.730Z,15.40
2023-01-20T12:02:00.658Z,16.25
2023-01-20T12:07:26.608Z,14.55
2023-01-20T12:12:38.461Z,14.98
2023-01-20T12:17:49.128Z,13.88
2023-01-20T12:23:11.854Z,14.35
2023-01-20T12:28:17.342Z,15.30
2023-01-20T12:33:38.990Z,14.10
2023-01-20T12:39:00.918Z,15.55
2023-01-20T12:44:26.592Z,12.30
2023-01-20T12:49:27.877Z,11.98
2023-01-20T12:54:50.878Z,11.35
2023-01-20T13:00:12.488Z,12.98
2023-01-20T13:05:42.377Z,13.50
2023-01-20T13:10:51.211Z,13.27
2023-01-20T13:16:02.779Z,12.07
2023-01-20T13:21:04.239Z,12.77
2023-01-20T13:26:06.283Z,11.38
2023-01-20T13:31:37.337Z,10.35
2023-01-20T13:36:38.894Z,17.40
2023-01-20T13:41:50.564Z,13.60
2023-01-20T13:46:52.067Z,12.30
2023-01-20T13:51:53.494Z,12.68
2023-01-20T13:57:27.928Z,11.70
2023-01-20T14:02:35.405Z,13.77
2023-01-20T14:07:36.739Z,21.33
2023-01-20T14:12:41.462Z,12.60
2023-01-20T14:17:42.840Z,16.35
2023-01-20T14:22:44.340Z,17.15
2023-01-20T14:27:45.679Z,15.82
2023-01-20T14:32:47.123Z,19.85
2023-01-20T14:37:51.565Z,22.48
2023-01-20T14:43:14.473Z,23.60
2023-01-20T14:48:32.422Z,20.67
2023-01-20T14:53:35.386Z,23.38
2023-01-20T14:58:44.571Z,21.58
2023-01-20T15:03:46.065Z,20.25
2023-01-20T15:09:04.920Z,20.05
2023-01-20T15:14:08.732Z,19.27
2023-01-20T15:19:20.290Z,19.58
2023-01-20T15:24:32.209Z,19.35
2023-01-20T15:29:35.701Z,23.13
2023-01-20T15:34:37.276Z,21.65
2023-01-20T15:39:38.676Z,25.63
2023-01-20T15:44:40.067Z,21.50
2023-01-20T15:49:41.361Z,22.60
2023-01-20T15:54:43.135Z,24.38
2023-01-20T15:59:45.966Z,22.17
2023-01-20T16:04:47.711Z,21.88
2023-01-20T16:09:49.289Z,23.30
2023-01-20T16:14:50.606Z,23.73
2023-01-20T16:19:51.967Z,21.88
2023-01-20T16:24:53.428Z,20.30
2023-01-20T16:29:55.913Z,21.23
2023-01-20T16:34:57.302Z,20.25
2023-01-20T16:39:59.303Z,19.60
2023-01-20T16:45:01.150Z,23.25
2023-01-20T16:50:02.566Z,19.77
2023-01-20T16:55:04.158Z,21.15
2023-01-20T17:00:07.139Z,25.15
2023-01-20T17:05:09.411Z,24.20
2023-01-20T17:10:11.826Z,22.85
2023-01-20T17:15:13.264Z,22.92
2023-01-20T17:20:15.062Z,22.27
2023-01-20T17:25:17.872Z,23.80
2023-01-20T17:30:19.618Z,21.77
2023-01-20T17:35:21.067Z,25.77
2023-01-20T17:40:22.510Z,20.92
2023-01-20T17:45:28.227Z,22.95
2023-01-20T17:50:29.587Z,19.63
2023-01-20T17:55:30.926Z,21.42
2023-01-20T18:00:32.304Z,22.90
2023-01-20T18:05:35.770Z,21.80
2023-01-20T18:10:37.138Z,20.40
2023-01-20T18:15:41.776Z,26.70
2023-01-20T18:20:44.487Z,23.27
2023-01-20T18:25:45.804Z,20.73
2023-01-20T18:30:47.235Z,17.80
2023-01-20T18:35:48.710Z,17.48
2023-01-20T18:40:50.017Z,19.98
2023-01-20T18:45:54.889Z,16.17
2023-01-20T18:51:00.802Z,17.75
2023-01-20T18:56:04.890Z,18.30
2023-01-20T19:01:12.537Z,17.27
2023-01-20T19:06:23.811Z,20.25
2023-01-20T19:11:28.961Z,19.83
2023-01-20T19:16:33.398Z,16.60
2023-01-20T19:21:36.755Z,17.23
2023-01-20T19:26:39.580Z,21.25
2023-01-20T19:31:42.438Z,17.80
2023-01-20T19:36:43.958Z,20.10
2023-01-20T19:41:45.419Z,19.80
2023-01-20T19:46:47.238Z,16.95
2023-01-20T19:51:48.544Z,16.05
2023-01-20T19:56:50.104Z,28.30
2023-01-20T20:01:51.443Z,14.65
2023-01-20T20:06:52.853Z,16.50
2023-01-20T20:11:54.969Z,15.43
2023-01-20T20:16:56.625Z,14.27
2023-01-20T20:21:58.660Z,13.10
2023-01-20T20:27:00.211Z,13.73
2023-01-20T20:32:01.619Z,12.52
2023-01-20T20:37:03.480Z,13.05
2023-01-20T20:42:04.897Z,13.43
2023-01-20T20:47:06.344Z,14.68
2023-01-20T20:52:08.612Z,15.07
2023-01-20T20:57:09.957Z,19.23
2023-01-20T21:02:13.893Z,15.82
2023-01-20T21:07:15.250Z,17.00
2023-01-20T21:12:16.890Z,17.77
2023-01-20T21:17:18.230Z,18.08
2023-01-20T21:22:19.930Z,18.98
2023-01-20T21:27:21.892Z,18.23
2023-01-20T21:32:23.350Z,18.08
2023-01-20T21:37:24.883Z,17.33
2023-01-20T21:42:26.276Z,17.00
2023-01-20T21:47:27.646Z,16.33
2023-01-20T21:52:41.265Z,17.80
2023-01-20T21:57:43.020Z,18.48
2023-01-20T22:02:44.730Z,17.67
2023-01-20T22:07:47.945Z,15.88
2023-01-20T22:12:49.354Z,16.98
2023-01-20T22:17:50.670Z,15.57
2023-01-20T22:22:52.075Z,16.63
2023-01-20T22:27:53.419Z,15.98
2023-01-20T22:32:54.794Z,14.82
2023-01-20T22:37:56.221Z,15.48
2023-01-20T22:42:57.554Z,14.77
2023-01-20T22:47:59.229Z,18.80
2023-01-20T22:53:00.561Z,18.00
2023-01-20T22:58:01.861Z,15.43
2023-01-20T23:03:03.239Z,15.15
2023-01-20T23:08:06.192Z,17.27
2023-01-20T23:13:07.727Z,15.73
2023-01-20T23:18:09.833Z,19.20
2023-01-20T23:23:11.193Z,16.50
2023-01-20T23:28:13.389Z,16.95
2023-01-20T23:33:14.871Z,18.85
2023-01-20T23:38:16.177Z,15.70
2023-01-20T23:43:17.499Z,17.00
2023-01-20T23:48:18.907Z,16.75
2023-01-20T23:53:20.745Z,18.88
2023-01-20T23:58:22.956Z,19.00
